createdAt,value
2022-10-18T00:02:42.660Z,101689.44
2022-10-18T00:05:46.603Z,101691.03
2022-10-18T00:08:49.078Z,101677.91
2022-10-18T00:11:52.060Z,101691.03
2022-10-18T00:14:54.530Z,101687.28
2022-10-18T00:17:57.499Z,101688.06
2022-10-18T00:21:02.259Z,101680.06
2022-10-18T00:24:05.771Z,101675.62
2022-10-18T00:27:08.406Z,101675.62
2022-10-18T00:30:11.764Z,101676.34
2022-10-18T00:33:14.163Z,101673.72
2022-10-18T01:25:50.812Z,101642.81
2022-10-18T01:29:21.797Z,101641.00
2022-10-18T01:32:31.274Z,101639.94
2022-10-18T01:35:40.790Z,101636.44
2022-10-18T01:38:45.277Z,101632.84
2022-10-18T01:41:51.039Z,101627.59
2022-10-18T01:44:54.799Z,101628.50
2022-10-18T01:47:59.259Z,101628.41
2022-10-18T01:51:03.810Z,101620.25
2022-10-18T01:54:06.823Z,101618.41
2022-10-18T01:57:35.700Z,101615.72
2022-10-18T02:00:42.347Z,101612.13
2022-10-18T02:03:48.403Z,101614.69
2022-10-18T02:06:58.703Z,101609.13
2022-10-18T02:10:06.698Z,101614.22
2022-10-18T02:13:13.421Z,101602.78
2022-10-18T02:16:39.343Z,101607.06
2022-10-18T02:19:50.191Z,101598.28
2022-10-18T02:22:55.771Z,101598.25
2022-10-18T02:25:58.697Z,101608.41
2022-10-18T02:29:01.909Z,101603.03
2022-10-18T02:32:10.758Z,101610.66
2022-10-18T02:35:34.562Z,101613.34
2022-10-18T02:38:38.441Z,101610.66
2022-10-18T02:41:41.764Z,101607.00
2022-10-18T02:44:44.459Z,101606.69
2022-10-18T02:47:47.329Z,101614.41
2022-10-18T02:50:49.948Z,101613.56
2022-10-18T02:53:52.683Z,101611.78
2022-10-18T02:56:55.349Z,101612.44
2022-10-18T02:59:58.102Z,101616.72
2022-10-18T03:03:01.107Z,101612.13
2022-10-18T03:06:04.098Z,101604.28
2022-10-18T03:09:07.377Z,101610.34
2022-10-18T03:12:10.129Z,101609.37
2022-10-18T03:15:12.732Z,101613.47
2022-10-18T03:18:15.759Z,101617.72
2022-10-18T03:21:18.454Z,101622.88
2022-10-18T03:24:21.259Z,101630.66
2022-10-18T03:27:23.901Z,101623.66
2022-10-18T03:30:26.650Z,101632.22
2022-10-18T03:33:29.901Z,101625.12
2022-10-18T03:36:33.978Z,101623.34
2022-10-18T03:39:36.513Z,101628.56
2022-10-18T03:42:39.348Z,101629.44
2022-10-18T03:45:43.357Z,101627.69
2022-10-18T03:48:46.146Z,101621.16
2022-10-18T03:51:49.018Z,101627.94
2022-10-18T03:54:51.796Z,101631.53
2022-10-18T03:57:54.503Z,101631.22
2022-10-18T04:00:57.259Z,101636.28
2022-10-18T04:04:00.180Z,101631.97
2022-10-18T04:07:02.607Z,101632.69
2022-10-18T04:10:06.193Z,101627.31
2022-10-18T04:13:08.896Z,101628.88
2022-10-18T04:16:11.831Z,101627.31
2022-10-18T04:19:14.391Z,101618.50
2022-10-18T04:22:17.445Z,101619.38
2022-10-18T04:25:19.940Z,101625.38
2022-10-18T04:28:22.800Z,101614.97
2022-10-18T04:31:25.565Z,101607.13
2022-10-18T04:34:28.483Z,101614.75
2022-10-18T04:37:31.408Z,101608.53
2022-10-18T04:40:34.909Z,101612.03
2022-10-18T04:43:37.594Z,101616.37
2022-10-18T04:46:40.450Z,101605.00
2022-10-18T04:49:42.844Z,101600.69
2022-10-18T04:52:46.021Z,101599.84
2022-10-18T04:55:49.919Z,101590.16
2022-10-18T04:58:52.863Z,101591.88
2022-10-18T05:01:55.422Z,101595.31
2022-10-18T05:04:58.470Z,101584.75
2022-10-18T05:08:01.017Z,101589.19
2022-10-18T05:11:04.658Z,101595.31
2022-10-18T05:14:10.181Z,101597.25
2022-10-18T05:17:13.142Z,101597.91
2022-10-18T05:20:15.905Z,101595.22
2022-10-18T05:23:19.100Z,101596.94
2022-10-18T05:26:21.979Z,101602.19
2022-10-18T05:29:25.165Z,101602.81
2022-10-18T05:32:27.715Z,101603.88
2022-10-18T05:35:30.627Z,101600.28
2022-10-18T05:38:33.174Z,101608.88
2022-10-18T05:41:36.472Z,101610.66
2022-10-18T05:44:38.786Z,101607.25
2022-10-18T05:47:41.760Z,101600.44
2022-10-18T05:50:46.169Z,101604.19
2022-10-18T05:53:49.120Z,101603.31
2022-10-18T05:56:52.300Z,101603.84
2022-10-18T05:59:55.207Z,101603.41
2022-10-18T06:03:00.185Z,101602.69
2022-10-18T06:06:06.817Z,101609.84
2022-10-18T06:09:09.591Z,101611.12
2022-10-18T06:12:12.497Z,101612.13
2022-10-18T06:15:14.951Z,101605.12
2022-10-18T06:18:17.904Z,101610.81
2022-10-18T06:21:21.312Z,101610.84
2022-10-18T06:24:24.279Z,101614.25
2022-10-18T06:27:26.715Z,101629.97
2022-10-18T06:30:29.576Z,101625.31
2022-10-18T06:33:32.765Z,101626.13
2022-10-18T06:36:35.814Z,101625.78
2022-10-18T06:39:38.337Z,101635.31
2022-10-18T06:42:41.434Z,101629.44
2022-10-18T06:45:43.788Z,101619.44
2022-10-18T06:48:46.679Z,101619.59
2022-10-18T06:51:50.071Z,101612.84
2022-10-18T06:54:54.013Z,101615.78
2022-10-18T06:57:56.678Z,101623.53
2022-10-18T07:00:59.722Z,101634.38
2022-10-18T07:04:02.200Z,101632.78
2022-10-18T07:07:05.148Z,101636.69
2022-10-18T07:10:11.192Z,101636.34
2022-10-18T07:13:32.780Z,101636.47
2022-10-18T07:16:36.156Z,101632.50
2022-10-18T07:19:39.193Z,101627.53
2022-10-18T07:22:41.678Z,101628.59
2022-10-18T07:25:44.850Z,101612.13
2022-10-18T07:28:50.702Z,101609.19
2022-10-18T07:31:53.685Z,101609.94
2022-10-18T07:34:56.091Z,101609.41
2022-10-18T07:37:59.282Z,101611.03
2022-10-18T07:41:03.803Z,101606.69
2022-10-18T07:44:06.805Z,101595.16
2022-10-18T07:47:09.261Z,101596.84
2022-10-18T07:50:12.189Z,101588.56
2022-10-18T07:53:15.115Z,101579.69
2022-10-18T07:56:21.024Z,101581.69
2022-10-18T07:59:23.972Z,101569.72
2022-10-18T08:02:26.888Z,101575.03
2022-10-18T08:05:29.691Z,101556.41
2022-10-18T08:08:32.862Z,101559.72
2022-10-18T08:11:35.584Z,101554.25
2022-10-18T08:14:38.201Z,101553.34
2022-10-18T08:17:41.048Z,101556.63
2022-10-18T08:20:46.618Z,101548.97
2022-10-18T08:23:50.288Z,101535.37
2022-10-18T08:26:52.976Z,101542.44
2022-10-18T08:29:55.701Z,101535.31
2022-10-18T08:32:58.367Z,101530.88
2022-10-18T08:36:03.402Z,101519.69
2022-10-18T08:39:06.075Z,101518.37
2022-10-18T08:42:14.132Z,101511.56
2022-10-18T08:45:30.009Z,101509.31
2022-10-18T08:48:39.152Z,101504.56
2022-10-18T08:51:50.898Z,101498.34
2022-10-18T08:55:10.946Z,101498.56
2022-10-18T08:58:22.784Z,101496.84
2022-10-18T09:01:53.655Z,101485.06
2022-10-18T09:05:05.229Z,101481.69
2022-10-18T09:08:32.072Z,101473.06
2022-10-18T09:11:43.597Z,101471.69
2022-10-18T09:15:13.306Z,101465.19
2022-10-18T09:18:19.083Z,101460.81
2022-10-18T09:21:42.430Z,101456.16
2022-10-18T09:24:48.357Z,101445.41
2022-10-18T09:27:56.955Z,101440.84
2022-10-18T09:31:24.567Z,101454.31
2022-10-18T09:34:34.748Z,101444.91
2022-10-18T09:37:37.995Z,101443.66
2022-10-18T09:41:19.024Z,101436.28
2022-10-18T09:44:33.354Z,101440.22
2022-10-18T09:47:41.505Z,101420.97
2022-10-18T09:50:50.495Z,101426.78
2022-10-18T09:53:59.031Z,101424.63
2022-10-18T09:57:34.568Z,101420.56
2022-10-18T10:00:48.162Z,101423.63
2022-10-18T10:03:52.007Z,101412.41
2022-10-18T10:06:56.629Z,101409.75
2022-10-18T10:10:19.944Z,101407.22
2022-10-18T10:13:26.313Z,101399.91
2022-10-18T10:16:29.329Z,101399.03
2022-10-18T10:19:39.959Z,101397.97
2022-10-18T10:22:46.636Z,101390.63
2022-10-18T10:25:55.843Z,101391.12
2022-10-18T10:28:59.503Z,101375.19
2022-10-18T10:32:03.978Z,101371.69
2022-10-18T10:35:54.025Z,101367.56
2022-10-18T10:39:21.491Z,101363.31
2022-10-18T10:42:24.553Z,101361.28
2022-10-18T10:45:35.305Z,101347.72
2022-10-18T10:48:48.396Z,101346.91
2022-10-18T10:52:08.336Z,101337.06
2022-10-18T10:55:35.429Z,101338.81
2022-10-18T10:58:40.628Z,101335.16
2022-10-18T11:01:43.876Z,101341.22
2022-10-18T11:04:50.272Z,101337.91
2022-10-18T11:07:58.201Z,101334.69
2022-10-18T11:11:00.600Z,101324.97
2022-10-18T11:14:26.289Z,101321.28
2022-10-18T11:17:41.621Z,101318.37
2022-10-18T11:20:56.315Z,101313.50
2022-10-18T11:24:02.042Z,101307.87
2022-10-18T11:27:25.160Z,101301.13
2022-10-18T11:30:49.676Z,101298.19
2022-10-18T11:34:20.594Z,101292.91
2022-10-18T11:37:38.756Z,101294.37
2022-10-18T11:40:50.257Z,101285.84
2022-10-18T11:44:03.649Z,101277.56
2022-10-18T11:47:13.241Z,101273.16
2022-10-18T11:50:28.113Z,101273.44
2022-10-18T11:53:37.289Z,101258.44
2022-10-18T11:56:58.251Z,101257.37
2022-10-18T12:00:20.749Z,101255.97
2022-10-18T12:03:45.345Z,101237.75
2022-10-18T12:06:52.239Z,101241.81
2022-10-18T12:09:56.585Z,101237.44
2022-10-18T12:13:03.907Z,101234.38
2022-10-18T12:16:09.357Z,101226.47
2022-10-18T12:19:23.378Z,101218.84
2022-10-18T12:22:38.087Z,101211.28
2022-10-18T12:25:50.991Z,101216.50
2022-10-18T12:29:08.721Z,101205.44
2022-10-18T12:32:14.796Z,101205.12
2022-10-18T12:35:19.695Z,101199.47
2022-10-18T12:38:35.545Z,101195.09
2022-10-18T12:41:38.683Z,101189.59
2022-10-18T12:44:42.291Z,101184.81
2022-10-18T12:47:45.085Z,101177.41
2022-10-18T12:50:58.976Z,101170.31
2022-10-18T12:54:04.207Z,101165.53
2022-10-18T12:57:18.201Z,101159.37
2022-10-18T13:00:29.639Z,101161.28
2022-10-18T13:03:54.212Z,101153.94
2022-10-18T13:06:59.920Z,101149.28
2022-10-18T13:10:15.007Z,101144.69
2022-10-18T13:13:39.573Z,101138.59
2022-10-18T13:16:49.013Z,101134.56
2022-10-18T13:20:28.100Z,101139.41
2022-10-18T13:23:43.249Z,101134.19
2022-10-18T13:27:31.337Z,101138.69
2022-10-18T13:30:46.310Z,101130.81
2022-10-18T13:33:49.601Z,101128.75
2022-10-18T13:37:20.490Z,101123.53
2022-10-18T13:40:25.611Z,101137.78
2022-10-18T13:43:55.052Z,101131.69
2022-10-18T13:46:57.819Z,101138.84
2022-10-18T13:50:11.496Z,101144.19
2022-10-18T13:53:30.093Z,101136.22
2022-10-18T13:56:52.966Z,101126.47
2022-10-18T14:00:16.820Z,101130.78
2022-10-18T14:03:58.923Z,101128.94
2022-10-18T14:07:06.019Z,101119.19
2022-10-18T14:10:43.815Z,101109.50
2022-10-18T14:14:00.181Z,101107.69
2022-10-18T14:17:21.655Z,101106.78
2022-10-18T14:20:49.445Z,101104.13
2022-10-18T14:24:00.813Z,101105.78
2022-10-18T14:27:16.699Z,101100.38
2022-10-18T14:30:25.588Z,101100.28
2022-10-18T14:33:58.086Z,101101.06
2022-10-18T14:37:01.806Z,101094.84
2022-10-18T14:40:04.748Z,101090.31
2022-10-18T14:43:14.088Z,101084.94
2022-10-18T14:46:30.032Z,101080.50
2022-10-18T14:49:42.361Z,101082.16
2022-10-18T14:52:45.443Z,101073.16
2022-10-18T14:55:56.285Z,101073.19
2022-10-18T14:59:03.575Z,101069.56
2022-10-18T15:02:24.557Z,101064.34
2022-10-18T15:05:27.350Z,101058.03
2022-10-18T15:08:44.020Z,101052.72
2022-10-18T15:11:47.179Z,101056.19
2022-10-18T15:14:51.185Z,101050.03
2022-10-18T15:17:54.910Z,101054.44
2022-10-18T15:21:22.253Z,101057.03
2022-10-18T15:24:27.527Z,101047.28
2022-10-18T15:27:35.241Z,101043.72
2022-10-18T15:30:42.729Z,101035.69
2022-10-18T15:33:45.772Z,101041.97
2022-10-18T15:36:49.813Z,101045.44
2022-10-18T15:40:29.027Z,101044.47
2022-10-18T15:43:34.427Z,101047.19
2022-10-18T15:46:39.515Z,101043.50
2022-10-18T15:49:44.944Z,101040.63
2022-10-18T15:52:48.010Z,101039.75
2022-10-18T15:55:52.635Z,101037.84
2022-10-18T15:58:57.316Z,101038.72
2022-10-18T16:01:59.859Z,101038.66
2022-10-18T16:05:03.064Z,101036.03
2022-10-18T16:08:05.897Z,101033.28
2022-10-18T16:11:21.216Z,101030.56
2022-10-18T16:14:24.149Z,101025.12
2022-10-18T16:17:27.404Z,101028.56
2022-10-18T16:20:30.072Z,101034.66
2022-10-18T16:23:33.287Z,101036.31
2022-10-18T16:26:36.466Z,101031.84
2022-10-18T16:29:41.240Z,101034.44
2022-10-18T16:32:43.704Z,101035.22
2022-10-18T16:35:46.529Z,101040.37
2022-10-18T16:38:49.560Z,101044.66
2022-10-18T16:41:52.684Z,101051.59
2022-10-18T16:44:55.133Z,101054.94
2022-10-18T16:47:58.020Z,101056.56
2022-10-18T16:51:01.430Z,101058.16
2022-10-18T16:54:05.452Z,101052.75
2022-10-18T16:57:09.839Z,101053.50
2022-10-18T17:00:19.095Z,101050.72
2022-10-18T17:03:21.882Z,101047.03
2022-10-18T17:06:27.869Z,101049.56
2022-10-18T17:09:30.735Z,101046.75
2022-10-18T17:12:34.042Z,101048.34
2022-10-18T17:15:36.545Z,101049.06
2022-10-18T17:18:39.425Z,101054.16
2022-10-18T17:21:41.883Z,101054.91
2022-10-18T17:24:44.950Z,101056.53
2022-10-18T17:27:47.505Z,101061.72
2022-10-18T17:30:50.315Z,101055.44
2022-10-18T17:33:54.738Z,101050.06
2022-10-18T17:36:57.781Z,101047.41
2022-10-18T17:40:00.404Z,101056.00
2022-10-18T17:43:03.291Z,101052.44
2022-10-18T17:46:06.102Z,101040.91
2022-10-18T17:49:09.046Z,101037.31
2022-10-18T17:52:11.978Z,101035.38
2022-10-18T17:55:15.577Z,101034.47
2022-10-18T17:58:18.228Z,101038.81
2022-10-18T18:01:23.213Z,101039.47
2022-10-18T18:04:26.033Z,101037.63
2022-10-18T18:07:28.676Z,101034.81
2022-10-18T18:10:35.219Z,101037.34
2022-10-18T18:13:38.039Z,101040.69
2022-10-18T18:16:42.960Z,101037.97
2022-10-18T18:19:45.642Z,101034.34
2022-10-18T18:22:48.451Z,101033.41
2022-10-18T18:25:58.177Z,101039.47
2022-10-18T18:32:09.182Z,101027.75
2022-10-18T18:35:11.878Z,101025.38
2022-10-18T18:38:14.568Z,101023.13
2022-10-18T18:41:25.212Z,101022.12
2022-10-18T18:44:28.355Z,101029.94
2022-10-18T18:47:35.378Z,101033.31
2022-10-18T18:50:37.963Z,101027.84
2022-10-18T18:53:41.828Z,101022.47
2022-10-18T18:56:44.573Z,101015.31
2022-10-18T18:59:47.289Z,101014.31
2022-10-18T19:02:49.977Z,101008.00
2022-10-18T19:06:02.747Z,101014.06
2022-10-18T19:09:19.669Z,101004.22
2022-10-18T19:12:22.534Z,101007.63
2022-10-18T19:15:25.425Z,101007.53
2022-10-18T19:18:28.333Z,101000.34
2022-10-18T19:21:33.719Z,101007.22
2022-10-18T19:24:37.320Z,101006.31
2022-10-18T19:27:40.070Z,101009.75
2022-10-18T19:30:46.671Z,100999.19
2022-10-18T19:33:59.354Z,100999.97
2022-10-18T19:37:03.512Z,100991.06
2022-10-18T19:40:06.793Z,100992.78
2022-10-18T19:43:09.728Z,100995.16
2022-10-18T19:46:12.464Z,101000.28
2022-10-18T19:49:15.787Z,100993.09
2022-10-18T19:52:18.625Z,101000.97
2022-10-18T19:55:21.405Z,101002.63
2022-10-18T19:58:24.051Z,100998.12
2022-10-18T20:01:28.872Z,101001.66
2022-10-18T20:04:34.637Z,101004.22
2022-10-18T20:07:37.106Z,100998.84
2022-10-18T20:10:40.199Z,100994.44
2022-10-18T20:13:43.284Z,100992.47
2022-10-18T20:16:46.264Z,100991.47
2022-10-18T20:19:48.809Z,100992.16
2022-10-18T20:22:51.684Z,100981.50
2022-10-18T20:25:59.386Z,100976.97
2022-10-18T20:29:02.560Z,100978.72
2022-10-18T20:32:05.295Z,100981.22
2022-10-18T20:35:08.354Z,100982.84
2022-10-18T20:38:10.719Z,100990.63
2022-10-18T20:41:19.931Z,100989.66
2022-10-18T20:44:22.744Z,100975.50
2022-10-18T20:47:25.475Z,100979.06
2022-10-18T20:50:27.808Z,100980.66
2022-10-18T20:53:33.069Z,100975.34
2022-10-18T20:56:38.888Z,100978.75
2022-10-18T20:59:41.904Z,100983.13
2022-10-18T21:02:44.368Z,100975.19
2022-10-18T21:05:47.252Z,100975.09
2022-10-18T21:08:57.643Z,100969.84
2022-10-18T21:12:00.549Z,100965.28
2022-10-18T21:15:03.344Z,100969.53
2022-10-18T21:18:06.106Z,100956.31
2022-10-18T21:21:11.000Z,100958.06
2022-10-18T21:24:14.069Z,100956.19
2022-10-18T21:27:16.501Z,100966.59
2022-10-18T21:30:19.700Z,100971.78
2022-10-18T21:33:22.663Z,100959.50
2022-10-18T21:36:27.701Z,100961.94
2022-10-18T21:39:30.232Z,100952.31
2022-10-18T21:42:33.805Z,100953.22
2022-10-18T21:45:36.480Z,100948.72
2022-10-18T21:48:44.180Z,100942.44
2022-10-18T21:51:46.915Z,100932.00
2022-10-18T21:54:49.973Z,100924.97
2022-10-18T21:57:52.620Z,100923.16
2022-10-18T22:00:55.627Z,100914.41
2022-10-18T22:04:00.168Z,100909.06
2022-10-18T22:07:04.843Z,100916.00
2022-10-18T22:10:07.953Z,100917.03
2022-10-18T22:13:10.547Z,100907.47
2022-10-18T22:16:15.108Z,100909.28
2022-10-18T22:19:18.000Z,100910.19
2022-10-18T22:22:20.758Z,100911.13
2022-10-18T22:25:23.482Z,100908.44
2022-10-18T22:28:26.270Z,100894.41
2022-10-18T22:31:32.691Z,100893.69
2022-10-18T22:34:35.406Z,100905.19
2022-10-18T22:37:38.078Z,100905.19
2022-10-18T22:40:40.790Z,100896.66
2022-10-18T22:43:43.447Z,100900.19
2022-10-18T22:46:46.277Z,100895.97
2022-10-18T22:49:48.945Z,100894.28
2022-10-18T22:52:53.937Z,100899.53
2022-10-18T22:55:57.445Z,100902.06
2022-10-18T22:59:00.258Z,100897.81
2022-10-18T23:02:02.908Z,100897.84
2022-10-18T23:05:05.830Z,100907.53
2022-10-18T23:08:10.626Z,100897.91
2022-10-18T23:11:13.794Z,100897.91
2022-10-18T23:14:16.500Z,100901.41
2022-10-18T23:17:19.171Z,100895.38
2022-10-18T23:20:21.829Z,100880.47
2022-10-18T23:23:24.598Z,100873.41
2022-10-18T23:26:28.307Z,100887.44
2022-10-18T23:29:31.088Z,100883.91
2022-10-18T23:32:35.331Z,100881.37
2022-10-18T23:35:38.308Z,100880.59
2022-10-18T23:38:41.794Z,100880.50
2022-10-18T23:41:44.656Z,100871.81
2022-10-18T23:44:48.210Z,100871.59
2022-10-18T23:47:50.883Z,100866.41
2022-10-18T23:50:53.636Z,100865.47
2022-10-18T23:53:56.295Z,100866.06
2022-10-18T23:56:59.132Z,100873.88
